createdAt,value
2023-05-20T00:00:55.841Z,56.83
2023-05-20T00:06:03.113Z,57.20
2023-05-20T00:11:11.003Z,58.17
2023-05-20T00:16:17.698Z,57.77
2023-05-20T00:21:24.869Z,59.60
2023-05-20T00:26:32.342Z,58.30
2023-05-20T00:31:40.833Z,58.03
2023-05-20T00:36:47.618Z,57.43
2023-05-20T00:47:00.755Z,57.23
2023-05-20T00:52:09.250Z,56.53
2023-05-20T00:57:19.114Z,57.77
2023-05-20T01:02:26.879Z,57.55
2023-05-20T01:07:34.606Z,55.40
2023-05-20T01:12:50.800Z,57.07
2023-05-20T01:18:02.633Z,57.07
2023-05-20T01:23:09.364Z,56.97
2023-05-20T01:28:18.806Z,56.58
2023-05-20T01:33:28.164Z,57.20
2023-05-20T01:38:37.527Z,53.13
2023-05-20T01:43:45.137Z,56.20
2023-05-20T01:48:51.894Z,55.80
2023-05-20T01:53:59.014Z,54.17
2023-05-20T01:59:06.302Z,55.93
2023-05-20T02:04:12.927Z,55.53
2023-05-20T02:09:21.389Z,55.07
2023-05-20T02:14:28.721Z,54.20
2023-05-20T02:19:36.097Z,54.73
2023-05-20T02:24:43.709Z,55.17
2023-05-20T02:29:52.165Z,54.97
2023-05-20T02:34:59.159Z,56.07
2023-05-20T02:40:09.503Z,54.63
2023-05-20T02:45:18.632Z,55.28
2023-05-20T02:50:25.539Z,55.57
2023-05-20T02:55:35.774Z,56.20
2023-05-20T03:00:44.180Z,54.77
2023-05-20T03:05:53.072Z,55.98
2023-05-20T03:11:00.531Z,55.40
2023-05-20T03:16:08.300Z,55.50
2023-05-20T03:21:15.582Z,55.83
2023-05-20T03:26:23.511Z,54.73
2023-05-20T03:31:30.397Z,55.33
2023-05-20T03:36:37.341Z,55.20
2023-05-20T03:41:44.047Z,54.83
2023-05-20T03:46:51.237Z,55.17
2023-05-20T03:51:58.289Z,55.77
2023-05-20T03:57:06.482Z,55.63
2023-05-20T04:02:13.208Z,54.83
2023-05-20T04:07:20.588Z,54.08
2023-05-20T04:12:29.185Z,55.88
2023-05-20T04:17:37.993Z,56.10
2023-05-20T04:22:45.219Z,55.20
2023-05-20T04:27:53.994Z,56.50
2023-05-20T04:33:02.832Z,56.80
2023-05-20T04:38:09.828Z,57.10
2023-05-20T04:43:18.242Z,56.77
2023-05-20T04:48:25.690Z,57.27
2023-05-20T04:53:34.595Z,56.65
2023-05-20T04:58:42.360Z,57.17
2023-05-20T05:03:50.336Z,57.30
2023-05-20T05:08:57.328Z,57.87
2023-05-20T05:14:04.428Z,57.93
2023-05-20T05:19:11.064Z,57.00
2023-05-20T05:24:18.125Z,57.58
2023-05-20T05:29:25.485Z,58.17
2023-05-20T05:34:32.158Z,56.45
2023-05-20T05:39:39.301Z,57.32
2023-05-20T05:44:45.933Z,56.70
2023-05-20T05:54:59.006Z,55.70
2023-05-20T06:00:07.893Z,56.77
2023-05-20T06:05:15.450Z,57.87
2023-05-20T06:10:22.326Z,57.20
2023-05-20T06:15:29.512Z,53.75
2023-05-20T06:20:37.439Z,54.47
2023-05-20T06:25:44.270Z,55.57
2023-05-20T06:30:51.255Z,56.00
2023-05-20T06:35:59.668Z,51.50
2023-05-20T06:41:06.362Z,56.90
2023-05-20T06:46:13.545Z,57.27
2023-05-20T06:51:22.356Z,57.30
2023-05-20T06:56:29.280Z,57.38
2023-05-20T07:01:36.383Z,56.63
2023-05-20T07:06:43.087Z,57.77
2023-05-20T07:11:50.849Z,57.00
2023-05-20T07:16:57.347Z,58.23
2023-05-20T07:22:04.376Z,58.00
2023-05-20T07:32:20.334Z,57.73
2023-05-20T07:37:28.382Z,58.23
2023-05-20T07:42:35.436Z,57.57
2023-05-20T07:47:42.992Z,58.87
2023-05-20T07:52:56.485Z,58.70
2023-05-20T07:57:59.715Z,58.70
2023-05-20T08:03:08.585Z,59.00
2023-05-20T08:08:17.408Z,58.67
2023-05-20T08:13:27.340Z,59.10
2023-05-20T08:18:38.123Z,60.00
2023-05-20T08:23:45.181Z,59.47
2023-05-20T08:28:52.207Z,60.17
2023-05-20T08:33:58.969Z,58.60
2023-05-20T08:39:06.485Z,60.03
2023-05-20T08:44:13.298Z,59.50
2023-05-20T08:49:21.471Z,60.63
2023-05-20T08:54:33.845Z,60.53
2023-05-20T08:59:45.077Z,60.17
2023-05-20T09:04:52.721Z,59.80
2023-05-20T09:10:00.326Z,59.07
2023-05-20T09:15:08.006Z,60.00
2023-05-20T09:20:18.801Z,60.97
2023-05-20T09:25:25.808Z,60.57
2023-05-20T09:30:35.334Z,60.43
2023-05-20T09:35:43.808Z,61.30
2023-05-20T09:40:51.816Z,61.30
2023-05-20T09:46:00.951Z,61.03
2023-05-20T09:51:08.968Z,61.27
2023-05-20T09:56:17.488Z,62.17
2023-05-20T10:01:26.674Z,61.53
2023-05-20T10:07:13.390Z,62.23
2023-05-20T10:12:44.156Z,61.87
2023-05-20T10:18:23.315Z,61.10
2023-05-20T10:23:32.272Z,62.77
2023-05-20T10:28:43.331Z,62.37
2023-05-20T10:33:52.797Z,62.10
2023-05-20T10:39:01.787Z,62.83
2023-05-20T10:44:09.456Z,63.30
2023-05-20T10:49:26.981Z,60.57
2023-05-20T10:54:35.705Z,61.95
2023-05-20T10:59:44.172Z,62.03
2023-05-20T11:04:52.218Z,63.23
2023-05-20T11:09:59.831Z,63.33
2023-05-20T11:15:08.282Z,64.70
2023-05-20T11:20:18.287Z,65.27
2023-05-20T11:25:27.030Z,63.10
2023-05-20T11:30:34.767Z,63.87
2023-05-20T11:35:49.067Z,64.17
2023-05-20T11:40:58.147Z,65.97
2023-05-20T11:46:07.225Z,66.10
2023-05-20T11:51:15.171Z,66.43
2023-05-20T11:56:22.883Z,66.28
2023-05-20T12:01:34.017Z,65.55
2023-05-20T12:06:42.874Z,65.53
2023-05-20T12:11:52.853Z,66.23
2023-05-20T12:17:00.708Z,65.27
2023-05-20T12:22:08.908Z,67.10
2023-05-20T12:27:17.719Z,66.50
2023-05-20T12:32:25.534Z,65.28
2023-05-20T12:37:34.457Z,66.50
2023-05-20T12:42:44.233Z,65.57
2023-05-20T12:47:51.727Z,65.90
2023-05-20T12:52:59.445Z,65.20
2023-05-20T12:58:11.492Z,65.75
2023-05-20T13:03:18.780Z,64.10
2023-05-20T13:08:27.992Z,63.98
2023-05-20T13:13:35.942Z,63.20
2023-05-20T13:18:43.734Z,63.83
2023-05-20T13:23:51.224Z,64.90
2023-05-20T13:28:58.960Z,65.40
2023-05-20T13:34:08.018Z,64.85
2023-05-20T13:39:17.608Z,64.33
2023-05-20T13:44:24.965Z,65.10
2023-05-20T13:49:31.892Z,63.10
2023-05-20T13:54:38.918Z,63.43
2023-05-20T13:59:46.016Z,63.07
2023-05-20T14:04:53.150Z,63.50
2023-05-20T14:10:00.735Z,63.07
2023-05-20T14:15:09.265Z,62.60
2023-05-20T14:20:18.715Z,62.33
2023-05-20T14:25:25.645Z,61.53
2023-05-20T14:30:32.926Z,62.67
2023-05-20T14:35:40.547Z,61.17
2023-05-20T14:40:47.489Z,61.33
2023-05-20T14:45:55.935Z,62.77
2023-05-20T14:51:03.235Z,62.33
2023-05-20T14:56:10.814Z,62.90
2023-05-20T15:01:19.583Z,60.98
2023-05-20T15:06:28.683Z,63.17
2023-05-20T15:11:35.224Z,62.20
2023-05-20T15:16:42.383Z,61.70
2023-05-20T15:21:51.409Z,61.90
2023-05-20T15:26:59.033Z,61.80
2023-05-20T15:32:07.513Z,62.93
2023-05-20T15:37:15.560Z,64.55
2023-05-20T15:42:23.361Z,63.60
2023-05-20T15:47:30.025Z,63.57
2023-05-20T15:52:38.326Z,62.70
2023-05-20T15:57:45.573Z,63.90
2023-05-20T16:02:54.408Z,65.40
2023-05-20T16:08:03.659Z,65.45
2023-05-20T16:13:11.561Z,64.40
2023-05-20T16:18:19.264Z,64.70
2023-05-20T16:23:26.684Z,63.98
2023-05-20T16:28:33.975Z,65.35
2023-05-20T16:33:41.842Z,65.07
2023-05-20T16:38:49.101Z,63.57
2023-05-20T16:43:55.976Z,68.93
2023-05-20T16:49:02.891Z,66.47
2023-05-20T16:54:10.759Z,62.88
2023-05-20T16:59:19.481Z,65.23
2023-05-20T17:04:26.759Z,63.33
2023-05-20T17:09:34.201Z,65.77
2023-05-20T17:14:41.324Z,65.83
2023-05-20T17:19:48.811Z,65.50
2023-05-20T17:24:57.399Z,64.77
2023-05-20T17:30:04.587Z,65.43
2023-05-20T17:35:11.747Z,69.07
2023-05-20T17:40:18.786Z,68.03
2023-05-20T17:45:25.324Z,66.43
2023-05-20T17:50:32.787Z,65.83
2023-05-20T17:55:40.395Z,65.13
2023-05-20T18:00:48.817Z,64.57
2023-05-20T18:05:56.122Z,65.90
2023-05-20T18:11:04.747Z,63.63
2023-05-20T18:16:11.771Z,65.40
2023-05-20T18:21:19.307Z,65.15
2023-05-20T18:26:29.173Z,63.87
2023-05-20T18:31:37.244Z,64.80
2023-05-20T18:36:44.145Z,65.63
2023-05-20T18:41:50.893Z,64.00
2023-05-20T18:46:58.823Z,64.80
2023-05-20T18:52:07.012Z,64.63
2023-05-20T18:57:13.631Z,63.37
2023-05-20T19:02:21.475Z,63.90
2023-05-20T19:07:28.539Z,64.35
2023-05-20T19:12:36.792Z,64.85
2023-05-20T19:17:45.793Z,63.23
2023-05-20T19:22:52.810Z,64.60
2023-05-20T19:28:01.383Z,63.27
2023-05-20T19:33:08.586Z,64.83
2023-05-20T19:38:15.773Z,64.57
2023-05-20T19:43:23.624Z,65.46
2023-05-20T19:48:31.527Z,64.97
2023-05-20T19:53:42.067Z,65.50
2023-05-20T19:58:49.488Z,64.13
2023-05-20T20:03:57.910Z,63.03
2023-05-20T20:09:05.351Z,63.63
2023-05-20T20:14:13.979Z,64.13
2023-05-20T20:19:24.526Z,63.02
2023-05-20T20:24:32.705Z,62.30
2023-05-20T20:29:41.609Z,64.07
2023-05-20T20:34:49.533Z,63.53
2023-05-20T20:39:56.571Z,64.70
2023-05-20T20:45:04.654Z,62.83
2023-05-20T20:50:13.249Z,62.70
2023-05-20T20:55:20.865Z,63.93
2023-05-20T21:00:28.221Z,62.90
2023-05-20T21:05:39.904Z,63.60
2023-05-20T21:10:48.518Z,63.73
2023-05-20T21:15:57.493Z,63.93
2023-05-20T21:21:05.841Z,64.70
2023-05-20T21:26:13.357Z,63.48
2023-05-20T21:31:20.965Z,63.67
2023-05-20T21:36:29.794Z,64.00
2023-05-20T21:41:37.128Z,64.07
2023-05-20T21:46:43.739Z,63.67
2023-05-20T21:51:51.068Z,64.10
2023-05-20T21:56:57.713Z,63.17
2023-05-20T22:02:04.939Z,64.23
2023-05-20T22:07:12.176Z,64.50
2023-05-20T22:12:20.864Z,64.07
2023-05-20T22:17:28.395Z,64.25
2023-05-20T22:22:37.637Z,63.75
2023-05-20T22:27:45.264Z,63.07
2023-05-20T22:32:53.291Z,62.77
2023-05-20T22:38:00.739Z,61.70
2023-05-20T22:43:10.056Z,62.03
2023-05-20T22:48:19.991Z,63.13
2023-05-20T22:53:27.776Z,63.40
2023-05-20T22:58:36.334Z,62.73
2023-05-20T23:03:44.423Z,64.03
2023-05-20T23:08:52.785Z,63.70
2023-05-20T23:13:59.400Z,67.17
2023-05-20T23:24:12.274Z,66.73
2023-05-20T23:29:20.524Z,67.60
2023-05-20T23:34:28.088Z,68.63
2023-05-20T23:39:35.026Z,67.95
2023-05-20T23:44:42.172Z,67.37
2023-05-20T23:49:49.567Z,68.33
2023-05-20T23:54:59.240Z,68.67
